Time;durP1;ratioP1;P1;durP2;ratioP2;P2;SDS_P1;SDS_P2;PMS_P1;PMS_P2;Temp;Humidity;BMP_temperature;BMP_pressure;BME280_temperature;BME280_humidity;BME280_pressure;Samples;Min_cycle;Max_cycle;Signal;HPM_P1;HPM_P2
2023/09/23 00:03:50;;;;;;;2.47;2.28;;;17.90;99.90;;;;;;10189890;29;20238;-87
2023/09/23 00:08:55;;;;;;;3.75;2.85;;;18.30;99.90;;;;;;10190061;29;20223;-87
2023/09/23 00:13:58;;;;;;;4.15;3.75;;;18.10;99.90;;;;;;10189844;29;20657;-86
2023/09/23 00:19:02;;;;;;;5.10;3.50;;;17.90;99.90;;;;;;10189405;29;20250;-86
2023/09/23 00:24:05;;;;;;;4.47;3.17;;;17.70;99.90;;;;;;10213587;29;20242;-86
2023/09/23 00:29:08;;;;;;;4.88;4.38;;;17.70;99.90;;;;;;10213873;29;20234;-87
2023/09/23 00:34:12;;;;;;;9.48;3.40;;;17.40;99.90;;;;;;10180824;29;20727;-86
2023/09/23 00:39:15;;;;;;;3.50;3.20;;;17.00;99.90;;;;;;10196852;29;20238;-87
2023/09/23 00:44:18;;;;;;;4.80;4.13;;;16.90;99.90;;;;;;10195982;29;20301;-87
2023/09/23 00:49:24;;;;;;;4.22;3.38;;;17.00;99.90;;;;;;10211720;29;20235;-86
2023/09/23 00:54:30;;;;;;;5.25;3.20;;;17.20;99.90;;;;;;10213761;29;20628;-87
2023/09/23 00:59:35;;;;;;;4.63;3.35;;;17.30;99.90;;;;;;10195077;29;20584;-86
2023/09/23 01:04:38;;;;;;;4.00;3.70;;;17.00;99.90;;;;;;10195310;29;20258;-86
2023/09/23 01:09:41;;;;;;;4.57;3.90;;;16.80;99.90;;;;;;10195089;29;20391;-87
2023/09/23 01:14:43;;;;;;;6.25;4.32;;;16.60;99.90;;;;;;10212537;29;20234;-87
2023/09/23 01:19:46;;;;;;;5.15;4.00;;;16.40;99.90;;;;;;10195204;29;20310;-87
2023/09/23 01:24:51;;;;;;;4.07;3.28;;;16.40;99.90;;;;;;10196060;29;20613;-87
2023/09/23 01:29:54;;;;;;;2.75;2.50;;;16.80;99.90;;;;;;10212328;29;20253;-87
2023/09/23 01:34:57;;;;;;;3.13;2.92;;;17.70;99.90;;;;;;10241303;28;20247;-86
2023/09/23 01:39:59;;;;;;;5.07;3.33;;;17.70;99.90;;;;;;10213068;29;20211;-87
2023/09/23 01:45:03;;;;;;;4.35;1.65;;;17.70;99.90;;;;;;10194764;29;20266;-86
2023/09/23 01:50:08;;;;;;;3.00;2.70;;;17.50;99.90;;;;;;10195104;29;20211;-87
2023/09/23 01:55:12;;;;;;;3.30;3.10;;;17.60;99.90;;;;;;10211169;29;20242;-87
2023/09/23 02:00:18;;;;;;;4.00;3.38;;;17.10;99.90;;;;;;10193875;29;20251;-86
2023/09/23 02:05:24;;;;;;;4.45;3.33;;;16.50;99.90;;;;;;10194194;29;20660;-86
2023/09/23 02:10:28;;;;;;;5.28;3.72;;;16.50;99.90;;;;;;10181588;29;20626;-86
2023/09/23 02:15:31;;;;;;;4.10;3.70;;;16.40;99.90;;;;;;10193945;29;20698;-87
2023/09/23 02:20:34;;;;;;;5.65;4.28;;;16.10;99.90;;;;;;10195136;29;20737;-87
2023/09/23 02:25:37;;;;;;;4.65;4.07;;;15.90;99.90;;;;;;10205514;29;20263;-87
2023/09/23 02:30:42;;;;;;;5.00;3.60;;;15.90;99.90;;;;;;10220681;29;20277;-86
2023/09/23 02:35:45;;;;;;;4.95;4.18;;;16.10;99.90;;;;;;10222328;29;20207;-87
2023/09/23 02:40:50;;;;;;;6.40;4.18;;;16.10;99.90;;;;;;10204536;29;20627;-87
2023/09/23 02:45:56;;;;;;;5.10;4.70;;;16.00;99.90;;;;;;10204582;29;20230;-86
2023/09/23 02:51:00;;;;;;;5.47;5.07;;;15.90;99.90;;;;;;10204159;29;20215;-86
2023/09/23 02:56:07;;;;;;;5.70;5.20;;;15.90;99.90;;;;;;10204249;29;20244;-86
2023/09/23 03:01:14;;;;;;;6.15;5.55;;;15.60;99.90;;;;;;10203813;29;20215;-85
2023/09/23 03:06:18;;;;;;;6.10;5.53;;;15.60;99.90;;;;;;10149796;29;20231;-87
2023/09/23 03:11:21;;;;;;;6.75;5.40;;;15.50;99.90;;;;;;10180495;29;20209;-86
2023/09/23 03:16:28;;;;;;;4.13;3.03;;;15.40;99.90;;;;;;10178651;29;20199;-87
2023/09/23 03:21:31;;;;;;;6.15;5.55;;;15.50;99.90;;;;;;10188777;29;20207;-86
2023/09/23 03:26:34;;;;;;;6.20;4.72;;;15.60;99.90;;;;;;10217787;29;20222;-86
2023/09/23 03:31:36;;;;;;;5.78;5.18;;;15.40;99.90;;;;;;10200612;29;20725;-87
2023/09/23 03:36:41;;;;;;;4.70;4.30;;;15.30;99.90;;;;;;10219315;29;20226;-86
2023/09/23 03:41:46;;;;;;;4.90;4.50;;;15.30;99.90;;;;;;10201013;29;20235;-86
2023/09/23 03:46:52;;;;;;;5.22;4.72;;;15.20;99.90;;;;;;10201293;29;20756;-86
2023/09/23 03:51:55;;;;;;;4.60;4.07;;;15.10;99.90;;;;;;10220040;29;20214;-87
2023/09/23 03:56:57;;;;;;;5.20;4.70;;;15.10;99.90;;;;;;10206163;29;20274;-86
2023/09/23 04:02:00;;;;;;;4.85;4.40;;;15.10;99.90;;;;;;10209235;29;20219;-87
2023/09/23 04:07:03;;;;;;;3.08;2.78;;;15.00;99.90;;;;;;10193300;29;20568;-86
2023/09/23 04:12:05;;;;;;;5.40;4.03;;;15.20;99.90;;;;;;10208520;29;20210;-87
2023/09/23 04:17:08;;;;;;;5.80;5.13;;;15.10;99.90;;;;;;10224830;29;20223;-86
2023/09/23 04:22:11;;;;;;;5.13;4.22;;;15.10;99.90;;;;;;10204935;29;20673;-87
2023/09/23 04:27:13;;;;;;;4.32;3.83;;;14.90;99.90;;;;;;10217041;29;20223;-87
2023/09/23 04:32:16;;;;;;;5.18;4.68;;;15.10;99.90;;;;;;10208712;29;20251;-86
2023/09/23 04:37:18;;;;;;;5.97;5.45;;;15.10;99.90;;;;;;10208173;29;20908;-87
2023/09/23 04:42:22;;;;;;;11.95;5.72;;;14.80;99.90;;;;;;10225272;29;20206;-87
2023/09/23 04:47:24;;;;;;;5.35;4.85;;;14.80;99.90;;;;;;10205433;29;20773;-87
2023/09/23 04:52:27;;;;;;;4.38;3.97;;;14.80;99.90;;;;;;10215360;29;20531;-87
2023/09/23 04:57:30;;;;;;;3.22;2.60;;;14.70;99.90;;;;;;10198826;29;20438;-87
2023/09/23 05:02:32;;;;;;;6.63;5.80;;;14.90;99.90;;;;;;10206740;29;20242;-87
2023/09/23 05:07:37;;;;;;;4.03;3.47;;;14.80;99.90;;;;;;10199168;29;20253;-87
2023/09/23 05:12:40;;;;;;;6.50;5.47;;;14.80;99.90;;;;;;10190472;29;20286;-87
2023/09/23 05:17:45;;;;;;;6.32;5.50;;;14.60;99.90;;;;;;10205491;29;20207;-87
2023/09/23 05:22:48;;;;;;;5.10;4.28;;;14.80;99.90;;;;;;10197525;29;20227;-87
2023/09/23 05:27:54;;;;;;;6.22;5.50;;;14.90;99.90;;;;;;10193887;29;20247;-87
2023/09/23 05:32:58;;;;;;;7.05;5.55;;;15.30;99.90;;;;;;10187266;29;20262;-87
2023/09/23 05:38:00;;;;;;;5.72;5.18;;;15.20;99.90;;;;;;10198085;29;20230;-87
2023/09/23 05:43:04;;;;;;;6.03;5.32;;;15.10;99.90;;;;;;10205053;29;20649;-87
2023/09/23 05:48:06;;;;;;;9.40;6.18;;;15.00;99.90;;;;;;10182702;29;20255;-86
2023/09/23 05:53:09;;;;;;;5.60;5.03;;;15.00;99.90;;;;;;10196612;29;20570;-87
2023/09/23 05:58:12;;;;;;;6.80;6.20;;;14.80;99.90;;;;;;10202943;29;20214;-86
2023/09/23 06:03:17;;;;;;;7.75;6.25;;;15.00;99.90;;;;;;10212366;29;20274;-86
2023/09/23 06:08:20;;;;;;;6.60;6.00;;;15.00;99.90;;;;;;10211335;29;20270;-87
2023/09/23 06:13:23;;;;;;;7.57;6.47;;;15.20;99.90;;;;;;10194373;29;20207;-87
2023/09/23 06:18:25;;;;;;;8.88;6.78;;;15.10;99.90;;;;;;10210123;29;20270;-87
2023/09/23 06:23:28;;;;;;;6.45;5.50;;;15.20;99.90;;;;;;10178561;29;20267;-87
2023/09/23 06:28:32;;;;;;;6.75;5.80;;;15.70;99.90;;;;;;10193597;29;20361;-87
2023/09/23 06:33:35;;;;;;;2.30;2.00;;;15.70;99.90;;;;;;10171261;29;20571;-87
2023/09/23 06:38:38;;;;;;;4.05;3.58;;;16.30;99.90;;;;;;10170191;29;20294;-87
2023/09/23 06:43:40;;;;;;;4.88;3.92;;;16.10;99.90;;;;;;10171686;29;20271;-87
2023/09/23 06:48:43;;;;;;;6.00;5.40;;;16.50;99.90;;;;;;10170205;29;20837;-87
2023/09/23 06:53:47;;;;;;;7.55;4.88;;;16.40;99.90;;;;;;10167720;29;20610;-84
2023/09/23 06:58:50;;;;;;;5.68;4.05;;;16.50;99.90;;;;;;10170034;29;20302;-86
2023/09/23 07:03:53;;;;;;;7.65;4.90;;;17.10;99.90;;;;;;10169399;29;20291;-86
2023/09/23 07:08:55;;;;;;;5.53;3.50;;;17.10;99.90;;;;;;10170565;29;20590;-87
2023/09/23 07:14:00;;;;;;;6.03;5.05;;;17.40;99.90;;;;;;10170113;29;20228;-86
2023/09/23 07:19:03;;;;;;;2.38;2.13;;;17.40;99.90;;;;;;10167420;29;20239;-86
2023/09/23 07:24:05;;;;;;;3.17;2.17;;;18.00;99.90;;;;;;10170528;29;20208;-87
2023/09/23 07:29:13;;;;;;;1.27;1.05;;;18.30;99.90;;;;;;10166922;29;20255;-86
2023/09/23 07:34:16;;;;;;;3.83;3.05;;;19.10;99.90;;;;;;10196857;29;20270;-86
2023/09/23 07:39:18;;;;;;;4.80;2.55;;;19.40;99.90;;;;;;10206954;29;20600;-86
2023/09/23 07:44:21;;;;;;;2.83;2.63;;;19.70;99.90;;;;;;10205168;29;20302;-86
2023/09/23 07:49:24;;;;;;;2.67;2.15;;;19.70;99.90;;;;;;10189499;29;20305;-86
2023/09/23 07:54:26;;;;;;;3.15;0.80;;;20.00;99.90;;;;;;10189493;29;20239;-85
2023/09/23 07:59:29;;;;;;;5.07;1.98;;;20.30;99.90;;;;;;10205643;29;20234;-86
2023/09/23 08:04:32;;;;;;;1.10;1.00;;;20.50;99.90;;;;;;10206879;29;20242;-86
2023/09/23 08:09:35;;;;;;;1.23;0.95;;;20.80;99.90;;;;;;10206654;29;20792;-86
2023/09/23 08:14:37;;;;;;;1.70;1.20;;;21.10;99.90;;;;;;10188683;29;20267;-86
2023/09/23 08:19:40;;;;;;;1.65;1.35;;;21.50;99.90;;;;;;10206967;29;20301;-86
2023/09/23 08:24:43;;;;;;;1.15;1.02;;;21.70;98.30;;;;;;10206489;29;20250;-86
2023/09/23 08:29:46;;;;;;;1.00;0.90;;;21.70;97.90;;;;;;10201681;29;20317;-86
2023/09/23 08:34:48;;;;;;;1.48;1.38;;;22.00;97.60;;;;;;10205872;29;20270;-86
2023/09/23 08:39:51;;;;;;;1.00;0.70;;;22.20;96.10;;;;;;10206243;29;20238;-86
2023/09/23 08:44:54;;;;;;;1.85;1.67;;;22.30;96.50;;;;;;10195433;29;20243;-86
2023/09/23 08:49:56;;;;;;;2.00;1.65;;;22.50;95.10;;;;;;10212343;29;20286;-86
2023/09/23 08:55:01;;;;;;;2.13;1.42;;;22.60;94.00;;;;;;10213415;29;20258;-86
2023/09/23 09:00:09;;;;;;;1.40;1.27;;;22.40;92.60;;;;;;10211741;29;20294;-86
2023/09/23 09:05:14;;;;;;;2.05;1.67;;;22.40;95.00;;;;;;10171641;29;20234;-87
2023/09/23 09:10:17;;;;;;;1.25;0.90;;;22.50;91.90;;;;;;10210016;29;20337;-86
2023/09/23 09:15:21;;;;;;;1.20;1.00;;;22.20;93.80;;;;;;10179572;29;20907;-86
2023/09/23 09:20:24;;;;;;;2.80;1.50;;;22.40;93.20;;;;;;10184294;29;20266;-87
2023/09/23 09:25:27;;;;;;;1.15;0.98;;;22.50;93.70;;;;;;10209505;29;20246;-87
2023/09/23 09:30:31;;;;;;;1.85;1.02;;;22.70;93.60;;;;;;10193180;29;20243;-87
2023/09/23 09:35:34;;;;;;;2.03;1.13;;;22.50;91.80;;;;;;10210204;29;20231;-87
2023/09/23 09:40:37;;;;;;;2.45;1.50;;;22.60;92.80;;;;;;10207808;29;20242;-87
2023/09/23 09:45:42;;;;;;;1.83;1.73;;;22.80;91.30;;;;;;10192847;29;20679;-87
2023/09/23 09:50:45;;;;;;;1.35;1.23;;;22.70;91.30;;;;;;10193273;29;20662;-87
2023/09/23 09:55:49;;;;;;;1.17;1.08;;;22.60;91.70;;;;;;10209416;29;20635;-87
2023/09/23 10:00:52;;;;;;;1.35;1.25;;;22.50;92.60;;;;;;10210050;29;20235;-88
2023/09/23 10:06:00;;;;;;;1.35;1.25;;;22.50;92.00;;;;;;10208204;29;20238;-88
2023/09/23 10:11:04;;;;;;;1.15;1.00;;;22.60;92.80;;;;;;10191841;29;20318;-87
2023/09/23 10:16:12;;;;;;;6.13;1.48;;;22.60;93.00;;;;;;10208976;29;20297;-87
2023/09/23 10:21:22;;;;;;;1.15;1.05;;;22.70;89.40;;;;;;10192976;29;20248;-88
2023/09/23 10:26:28;;;;;;;1.88;1.33;;;22.50;85.50;;;;;;10190801;29;20629;-88
2023/09/23 10:31:33;;;;;;;2.55;1.25;;;22.10;90.90;;;;;;10166284;29;20325;-87
2023/09/23 10:36:36;;;;;;;1.77;1.25;;;22.10;91.30;;;;;;10207939;29;20294;-87
2023/09/23 10:41:40;;;;;;;2.17;1.23;;;22.30;92.40;;;;;;10191388;29;20246;-87
2023/09/23 10:46:42;;;;;;;1.35;1.23;;;22.30;84.70;;;;;;10207065;29;20314;-90
2023/09/23 10:51:45;;;;;;;4.00;1.50;;;22.50;84.50;;;;;;10190627;29;20677;-86
2023/09/23 10:56:48;;;;;;;1.30;1.20;;;22.50;87.90;;;;;;10189785;29;20318;-85
2023/09/23 11:01:55;;;;;;;1.55;1.10;;;22.50;91.10;;;;;;10190196;29;20239;-86
2023/09/23 11:06:59;;;;;;;1.88;1.08;;;22.70;90.40;;;;;;10188905;29;20259;-86
2023/09/23 11:12:18;;;;;;;1.15;1.05;;;22.50;83.10;;;;;;10181639;29;20239;-86
2023/09/23 11:17:26;;;;;;;2.00;1.13;;;22.70;90.40;;;;;;10151034;29;20712;-86
2023/09/23 11:22:30;;;;;;;1.75;1.10;;;22.90;90.50;;;;;;10167881;29;20230;-86
2023/09/23 11:27:32;;;;;;;3.58;1.05;;;22.70;90.00;;;;;;10188652;29;20282;-88
2023/09/23 11:32:35;;;;;;;1.45;0.95;;;22.80;81.70;;;;;;10204629;29;20819;-88
2023/09/23 11:37:38;;;;;;;0.85;0.80;;;22.90;91.20;;;;;;10181383;29;20271;-87
2023/09/23 11:42:41;;;;;;;1.38;1.27;;;22.90;91.00;;;;;;10184670;29;20242;-87
2023/09/23 11:47:43;;;;;;;1.02;0.85;;;22.90;90.00;;;;;;10186198;29;20258;-86
2023/09/23 11:52:46;;;;;;;1.88;1.02;;;22.90;90.80;;;;;;10203950;29;20239;-87
2023/09/23 11:57:49;;;;;;;1.08;0.98;;;23.20;88.20;;;;;;10203935;29;20890;-87
2023/09/23 12:02:52;;;;;;;3.55;0.60;;;23.20;89.70;;;;;;10204640;29;20243;-87
2023/09/23 12:07:58;;;;;;;1.30;1.20;;;23.10;88.40;;;;;;10188158;29;20262;-88
2023/09/23 12:13:02;;;;;;;1.00;0.70;;;23.20;88.60;;;;;;10203106;29;20800;-88
2023/09/23 12:23:45;;;;;;;1.13;0.80;;;23.00;85.60;;;;;;9816384;23;10002386;-88
2023/09/23 12:28:48;;;;;;;1.60;1.38;;;22.90;83.20;;;;;;10048379;29;20315;-87
2023/09/23 12:33:53;;;;;;;2.53;1.13;;;23.00;88.30;;;;;;10046230;29;20250;-87
2023/09/23 12:38:57;;;;;;;1.20;1.00;;;23.00;81.70;;;;;;10052584;29;20301;-87
2023/09/23 12:43:59;;;;;;;0.80;0.80;;;23.10;85.50;;;;;;10054314;29;20237;-87
2023/09/23 12:49:02;;;;;;;1.02;0.95;;;23.30;85.30;;;;;;10046413;29;20286;-87
2023/09/23 12:54:09;;;;;;;1.55;1.08;;;23.40;85.10;;;;;;10053625;29;20704;-87
2023/09/23 12:59:11;;;;;;;1.65;1.10;;;23.30;84.50;;;;;;10050853;29;20245;-87
2023/09/23 13:04:14;;;;;;;0.90;0.80;;;23.10;83.90;;;;;;10054712;29;20301;-87
2023/09/23 13:09:18;;;;;;;1.58;0.70;;;22.70;73.10;;;;;;10047503;29;20330;-88
2023/09/23 13:14:22;;;;;;;1.23;0.70;;;22.60;82.40;;;;;;10042112;29;20647;-88
2023/09/23 13:19:24;;;;;;;1.05;0.95;;;22.60;77.60;;;;;;10040902;29;20225;-88
2023/09/23 13:24:28;;;;;;;1.20;1.00;;;22.80;83.40;;;;;;10053829;29;20800;-88
2023/09/23 13:29:31;;;;;;;1.48;1.10;;;22.80;83.60;;;;;;10042088;29;20272;-87
2023/09/23 13:34:34;;;;;;;1.10;0.90;;;22.50;82.70;;;;;;10039792;29;20319;-87
2023/09/23 13:39:37;;;;;;;0.88;0.57;;;22.40;85.40;;;;;;10051826;29;20278;-88
2023/09/23 13:44:40;;;;;;;1.00;0.90;;;22.10;74.60;;;;;;10054649;29;20640;-87
2023/09/23 13:49:43;;;;;;;1.10;1.00;;;22.20;88.90;;;;;;10052469;29;20269;-87
2023/09/23 13:54:46;;;;;;;0.80;0.80;;;22.20;83.70;;;;;;10031289;29;20245;-87
2023/09/23 13:59:48;;;;;;;1.23;0.65;;;22.20;85.70;;;;;;10052292;29;20241;-87
2023/09/23 14:04:51;;;;;;;2.95;0.60;;;22.00;78.00;;;;;;10042236;29;20261;-85
2023/09/23 14:09:53;;;;;;;0.77;0.47;;;21.60;68.50;;;;;;10054015;29;20265;-85
2023/09/23 14:15:05;;;;;;;0.98;0.52;;;21.90;60.30;;;;;;10054587;29;20237;-85
2023/09/23 14:20:10;;;;;;;1.05;0.80;;;21.80;57.50;;;;;;10054110;29;20245;-85
2023/09/23 14:25:14;;;;;;;1.63;0.73;;;21.80;55.00;;;;;;10052466;29;20812;-85
2023/09/23 14:30:18;;;;;;;0.70;0.30;;;21.90;54.70;;;;;;10053746;29;20728;-85
2023/09/23 14:35:21;;;;;;;1.55;0.50;;;21.60;54.10;;;;;;10053525;29;20304;-85
2023/09/23 14:40:24;;;;;;;1.95;0.30;;;21.50;61.40;;;;;;10052730;29;20248;-85
2023/09/23 14:45:27;;;;;;;0.90;0.40;;;21.40;57.80;;;;;;10052948;29;20659;-85
2023/09/23 14:50:29;;;;;;;1.05;0.40;;;21.50;58.40;;;;;;10052912;29;20260;-85
2023/09/23 14:55:32;;;;;;;2.88;1.40;;;21.10;63.10;;;;;;10052489;29;20229;-84
2023/09/23 15:00:35;;;;;;;0.75;0.60;;;21.10;64.20;;;;;;10052356;29;20253;-84
2023/09/23 15:05:37;;;;;;;0.95;0.68;;;20.90;61.90;;;;;;10051192;29;20893;-84
2023/09/23 15:10:40;;;;;;;1.48;0.60;;;20.90;65.50;;;;;;10052240;29;20320;-84
2023/09/23 15:15:44;;;;;;;0.52;0.40;;;20.90;71.30;;;;;;10051991;29;20237;-84
2023/09/23 15:20:47;;;;;;;0.65;0.60;;;20.70;66.30;;;;;;10050127;29;20297;-84
2023/09/23 15:25:50;;;;;;;1.85;0.40;;;20.70;71.30;;;;;;10051826;29;20237;-84
2023/09/23 15:30:54;;;;;;;0.60;0.50;;;20.80;73.90;;;;;;10051046;29;20261;-85
2023/09/23 15:35:56;;;;;;;0.93;0.50;;;20.70;72.80;;;;;;10051199;29;20690;-85
2023/09/23 15:40:59;;;;;;;4.18;1.60;;;20.60;74.20;;;;;;10047576;29;20233;-90
2023/09/23 15:46:02;;;;;;;1.95;1.33;;;20.60;66.10;;;;;;10050469;29;20301;-89
2023/09/23 15:51:16;;;;;;;2.00;1.48;;;19.90;63.80;;;;;;10049711;29;20265;-91
2023/09/23 15:56:19;;;;;;;1.50;0.98;;;;;;;;;;10050216;29;20258;-91
2023/09/23 16:01:22;;;;;;;1.63;0.82;;;17.80;74.20;;;;;;10034243;29;20298;-91
2023/09/23 16:06:25;;;;;;;4.90;1.35;;;17.60;79.10;;;;;;10050231;29;20246;-91
2023/09/23 16:11:27;;;;;;;2.58;1.77;;;17.40;89.50;;;;;;10050714;29;20796;-90
2023/09/23 16:16:30;;;;;;;3.15;1.83;;;17.40;85.40;;;;;;10051616;29;20741;-89
2023/09/23 16:21:33;;;;;;;2.92;1.65;;;17.10;87.30;;;;;;10049014;29;20268;-90
2023/09/23 16:26:35;;;;;;;1.73;1.13;;;17.00;88.20;;;;;;10051160;29;20245;-89
2023/09/23 16:31:38;;;;;;;3.47;1.00;;;16.90;90.40;;;;;;10049919;29;20673;-90
2023/09/23 16:36:41;;;;;;;1.17;1.00;;;;;;;;;;10050680;29;20711;-90
2023/09/23 16:41:43;;;;;;;1.88;0.90;;;16.70;90.40;;;;;;10048548;29;20768;-90
2023/09/23 16:46:46;;;;;;;2.97;1.20;;;16.50;91.60;;;;;;10047849;29;20702;-90
2023/09/23 16:51:49;;;;;;;2.03;1.58;;;16.20;92.80;;;;;;9713952;29;9999747;-88
2023/09/23 16:56:52;;;;;;;4.78;2.95;;;;;;;;;;10046729;29;20241;-89
2023/09/23 17:01:55;;;;;;;3.70;2.42;;;;;;;;;;10046071;29;20241;-89
2023/09/23 17:06:58;;;;;;;3.67;3.05;;;;;;;;;;10052246;29;20241;-89
2023/09/23 17:12:00;;;;;;;4.57;3.33;;;15.30;98.50;;;;;;10037705;29;20329;-90
2023/09/23 17:17:03;;;;;;;4.82;2.28;;;14.60;99.90;;;;;;10000742;29;20647;-90
2023/09/23 17:22:06;;;;;;;3.47;2.63;;;14.20;99.90;;;;;;10001421;29;20310;-89
2023/09/23 17:27:09;;;;;;;3.78;2.67;;;13.60;99.90;;;;;;10027916;29;20246;-89
2023/09/23 17:32:11;;;;;;;6.95;5.53;;;13.20;99.90;;;;;;10052942;29;20253;-89
2023/09/23 17:37:14;;;;;;;4.55;4.13;;;13.10;99.90;;;;;;10052231;29;20253;-90
2023/09/23 17:42:17;;;;;;;6.60;4.28;;;12.70;99.90;;;;;;10052618;29;20300;-90
2023/09/23 17:47:20;;;;;;;5.53;4.47;;;12.50;99.90;;;;;;10051840;29;20237;-90
2023/09/23 17:52:22;;;;;;;4.57;3.50;;;12.30;99.90;;;;;;10038247;29;20269;-89
2023/09/23 17:57:27;;;;;;;4.22;3.15;;;11.90;99.90;;;;;;10036201;29;20711;-90
2023/09/23 18:02:30;;;;;;;3.85;3.22;;;11.80;99.90;;;;;;10050603;29;20266;-88
2023/09/23 18:07:32;;;;;;;3.13;2.47;;;11.90;99.90;;;;;;10043053;29;20245;-88
2023/09/23 18:12:36;;;;;;;3.67;2.75;;;11.70;99.90;;;;;;10051085;29;20280;-88
2023/09/23 18:17:39;;;;;;;3.57;3.20;;;11.50;99.90;;;;;;10026993;29;20241;-89
2023/09/23 18:22:45;;;;;;;7.47;3.60;;;11.30;99.90;;;;;;10048881;29;20283;-88
2023/09/23 18:27:47;;;;;;;5.75;3.47;;;11.10;99.90;;;;;;10050970;29;20249;-87
2023/09/23 18:32:50;;;;;;;3.80;3.22;;;11.00;99.90;;;;;;10050153;29;20266;-87
2023/09/23 18:37:55;;;;;;;5.13;4.43;;;10.80;99.90;;;;;;10050210;29;20238;-88
2023/09/23 18:42:58;;;;;;;6.03;3.80;;;10.80;99.90;;;;;;10040274;29;20241;-88
2023/09/23 18:48:00;;;;;;;5.50;4.07;;;10.70;99.90;;;;;;10049375;29;20297;-88
2023/09/23 18:53:23;;;;;;;7.03;4.63;;;10.70;99.90;;;;;;10040811;29;20277;-88
2023/09/23 18:58:26;;;;;;;6.27;4.13;;;10.60;99.90;;;;;;10050343;29;20229;-88
2023/09/23 19:03:30;;;;;;;10.30;4.07;;;10.60;99.90;;;;;;10039290;29;20218;-88
2023/09/23 19:08:33;;;;;;;7.90;5.10;;;10.50;99.90;;;;;;10020154;29;20824;-88
2023/09/23 19:14:21;;;;;;;7.73;5.50;;;10.40;99.90;;;;;;10060491;29;20797;-88
2023/09/23 19:19:24;;;;;;;5.80;5.20;;;10.50;99.90;;;;;;10049851;29;20251;-88
2023/09/23 19:24:26;;;;;;;8.10;6.57;;;10.40;99.90;;;;;;10057055;29;20265;-88
2023/09/23 19:29:35;;;;;;;6.23;4.60;;;10.50;99.90;;;;;;10057839;29;20270;-89
2023/09/23 19:34:38;;;;;;;7.27;5.03;;;10.10;99.90;;;;;;10047730;29;20241;-89
2023/09/23 19:39:41;;;;;;;7.77;6.57;;;10.30;99.90;;;;;;10047345;29;20293;-89
2023/09/23 19:44:44;;;;;;;6.97;6.17;;;10.30;99.90;;;;;;10045383;29;20823;-89
2023/09/23 19:49:50;;;;;;;8.47;6.53;;;10.40;99.90;;;;;;10048253;29;20382;-90
2023/09/23 19:54:52;;;;;;;8.97;6.43;;;10.30;99.90;;;;;;10046909;29;20613;-89
2023/09/23 19:59:56;;;;;;;7.27;6.00;;;10.20;99.90;;;;;;10050302;29;20697;-89
2023/09/23 20:04:58;;;;;;;9.00;6.73;;;10.10;99.90;;;;;;10044684;29;20245;-89
2023/09/23 20:10:05;;;;;;;10.37;7.37;;;10.00;99.90;;;;;;10027407;29;20269;-90
2023/09/23 20:15:08;;;;;;;8.33;6.53;;;10.00;99.90;;;;;;10036666;29;20237;-89
2023/09/23 20:20:12;;;;;;;10.03;7.13;;;9.90;99.90;;;;;;10046898;29;20243;-90
2023/09/23 20:25:15;;;;;;;13.50;7.00;;;9.80;99.90;;;;;;10030560;29;20740;-90
2023/09/23 20:30:18;;;;;;;8.73;7.87;;;9.80;99.90;;;;;;10048705;29;20269;-91
2023/09/23 20:35:22;;;;;;;8.63;7.00;;;9.80;99.90;;;;;;10050181;29;20597;-90
2023/09/23 20:40:25;;;;;;;7.53;6.83;;;9.70;99.90;;;;;;10055773;29;20253;-90
2023/09/23 20:45:28;;;;;;;7.33;6.57;;;9.60;99.90;;;;;;10056624;29;20252;-91
2023/09/23 20:50:32;;;;;;;7.63;6.93;;;9.60;99.90;;;;;;10056596;29;20261;-91
2023/09/23 20:55:35;;;;;;;8.43;7.60;;;9.60;99.90;;;;;;10056076;29;20253;-90
2023/09/23 21:00:41;;;;;;;9.33;8.03;;;9.40;99.90;;;;;;10055519;29;20229;-90
2023/09/23 21:05:45;;;;;;;9.43;8.17;;;9.20;99.90;;;;;;10056047;29;20247;-89
2023/09/23 21:10:48;;;;;;;10.27;9.27;;;9.30;99.90;;;;;;10056547;29;20269;-89
2023/09/23 21:15:58;;;;;;;11.97;9.67;;;9.20;99.90;;;;;;10057165;29;20298;-90
2023/09/23 21:21:01;;;;;;;11.23;9.30;;;9.20;99.90;;;;;;10056263;29;20756;-92
2023/09/23 21:26:03;;;;;;;7.80;7.10;;;9.10;99.90;;;;;;10055756;29;20249;-92
2023/09/23 21:31:06;;;;;;;8.37;7.13;;;9.10;99.90;;;;;;10053732;29;20318;-92
2023/09/23 21:36:09;;;;;;;7.80;7.10;;;9.20;99.90;;;;;;10055147;29;20676;-91
2023/09/23 21:41:12;;;;;;;7.70;6.90;;;9.20;99.90;;;;;;10052690;29;20241;-90
2023/09/23 21:46:19;;;;;;;10.40;9.00;;;9.20;99.90;;;;;;10055025;29;20237;-89
2023/09/23 21:51:22;;;;;;;9.47;8.60;;;9.30;99.90;;;;;;10054992;29;20726;-90
2023/09/23 21:56:24;;;;;;;9.00;7.83;;;9.40;99.90;;;;;;10054366;29;20293;-90
2023/09/23 22:01:43;;;;;;;8.60;6.23;;;9.80;99.90;;;;;;10054567;29;20292;-91
2023/09/23 22:06:45;;;;;;;6.40;5.90;;;9.90;99.90;;;;;;10055482;29;20753;-90
2023/09/23 22:11:48;;;;;;;6.25;5.68;;;10.40;99.90;;;;;;10054199;29;20681;-91
2023/09/23 22:16:54;;;;;;;7.22;6.45;;;10.50;99.90;;;;;;10039853;29;20237;-91
2023/09/23 22:21:57;;;;;;;5.15;4.68;;;10.50;99.90;;;;;;10032458;29;20269;-90
2023/09/23 22:26:59;;;;;;;8.40;7.18;;;10.80;99.90;;;;;;10052852;29;20703;-91
2023/09/23 22:32:02;;;;;;;7.03;6.32;;;10.90;99.90;;;;;;10052876;29;20670;-91
2023/09/23 22:37:05;;;;;;;6.97;6.38;;;10.90;99.90;;;;;;10052429;29;20241;-90
2023/09/23 22:42:07;;;;;;;7.97;7.13;;;11.00;99.90;;;;;;10054425;29;20249;-92
2023/09/23 22:47:12;;;;;;;7.75;6.80;;;10.90;99.90;;;;;;10052811;29;20245;-92
2023/09/23 22:52:25;;;;;;;8.45;7.03;;;10.90;99.90;;;;;;10051397;29;20268;-92
2023/09/23 22:57:28;;;;;;;9.30;7.45;;;10.90;99.90;;;;;;10053744;29;20249;-92
2023/09/23 23:02:31;;;;;;;6.40;5.57;;;11.10;99.90;;;;;;10051587;29;20365;-92
2023/09/23 23:07:35;;;;;;;8.00;6.80;;;11.20;99.90;;;;;;10052313;29;20245;-92
2023/09/23 23:12:39;;;;;;;7.25;6.38;;;11.20;99.90;;;;;;10053174;29;20257;-92
2023/09/23 23:17:43;;;;;;;8.13;6.63;;;11.30;99.90;;;;;;10052535;29;20666;-92
2023/09/23 23:22:47;;;;;;;8.13;6.75;;;11.40;99.90;;;;;;10050292;29;20273;-91
2023/09/23 23:27:50;;;;;;;8.10;5.95;;;11.30;99.90;;;;;;10051539;29;20718;-92
2023/09/23 23:32:52;;;;;;;6.88;6.25;;;11.40;99.90;;;;;;10051489;29;20253;-92
2023/09/23 23:37:55;;;;;;;6.85;5.72;;;11.40;99.90;;;;;;10052188;29;20294;-91
2023/09/23 23:43:00;;;;;;;14.18;7.43;;;11.50;99.90;;;;;;10042556;29;20277;-90
2023/09/23 23:48:03;;;;;;;8.52;7.20;;;11.40;99.90;;;;;;10014187;29;20305;-91
2023/09/23 23:53:06;;;;;;;7.78;6.72;;;11.30;99.90;;;;;;10024825;29;20260;-92
2023/09/23 23:58:09;;;;;;;12.35;7.07;;;11.50;99.90;;;;;;10051720;29;20296;-92
